Time;durP1;ratioP1;P1;durP2;ratioP2;P2;SDS_P1;SDS_P2;PMS_P1;PMS_P2;Temp;Humidity;BMP_temperature;BMP_pressure;BME280_temperature;BME280_humidity;BME280_pressure;Samples;Min_cycle;Max_cycle;Signal;HPM_P1;HPM_P2
2022/03/30 00:00:01;;;;;;;;;;;;;;;15.27;36.83;98752.97;4444670;32;20048;-74
2022/03/30 00:02:37;;;;;;;;;;;;;;;15.53;35.96;98748.97;4444450;32;20351;-73
2022/03/30 00:05:04;;;;;;;;;;;;;;;15.53;35.96;98733.31;4443414;32;20274;-74
2022/03/30 00:07:32;;;;;;;;;;;;;;;15.62;35.76;98738.34;4444657;32;20436;-73
2022/03/30 00:09:59;;;;;;;;;;;;;;;15.70;35.56;98740.81;4444370;32;20072;-73
2022/03/30 00:12:26;;;;;;;;;;;;;;;15.72;35.86;98732.03;4445029;32;20327;-73
2022/03/30 00:14:52;;;;;;;;;;;;;;;15.68;35.85;98738.22;4442188;32;20680;-73
2022/03/30 00:17:19;;;;;;;;;;;;;;;15.53;36.04;98733.31;4459402;32;19980;-74
2022/03/30 00:19:46;;;;;;;;;;;;;;;15.45;36.12;98741.31;4460568;32;20342;-73
2022/03/30 00:22:13;;;;;;;;;;;;;;;15.61;36.52;98741.84;4458901;32;19997;-72
2022/03/30 00:24:44;;;;;;;;;;;;;;;15.56;38.11;98733.25;4458470;32;20046;-72
2022/03/30 00:27:11;;;;;;;;;;;;;;;15.57;37.25;98740.16;4458431;32;20337;-73
2022/03/30 00:29:38;;;;;;;;;;;;;;;15.34;37.62;98732.84;4458986;32;20023;-72
2022/03/30 00:32:05;;;;;;;;;;;;;;;15.45;36.48;98730.88;4458632;32;19984;-73
2022/03/30 00:34:32;;;;;;;;;;;;;;;15.39;37.57;98727.56;4460082;32;20007;-73
2022/03/30 00:36:59;;;;;;;;;;;;;;;15.53;37.24;98722.88;4460108;32;19989;-73
2022/03/30 00:39:26;;;;;;;;;;;;;;;15.38;37.32;98723.22;4460389;32;19988;-71
2022/03/30 00:41:53;;;;;;;;;;;;;;;15.40;37.39;98726.66;4450731;32;19988;-72
2022/03/30 00:44:19;;;;;;;;;;;;;;;15.35;37.88;98719.78;4446248;32;20069;-73
2022/03/30 00:46:50;;;;;;;;;;;;;;;15.23;37.91;98725.25;4444499;32;20335;-73
2022/03/30 00:49:17;;;;;;;;;;;;;;;15.10;37.75;98710.78;4445029;32;19977;-73
2022/03/30 00:51:44;;;;;;;;;;;;;;;15.11;37.20;98715.09;4457847;32;20395;-73
2022/03/30 00:54:11;;;;;;;;;;;;;;;15.22;37.82;98718.34;4454187;32;20027;-72
2022/03/30 00:56:39;;;;;;;;;;;;;;;15.18;37.52;98714.06;4444717;32;19981;-73
2022/03/30 00:59:06;;;;;;;;;;;;;;;15.21;37.92;98706.19;4446905;32;19996;-72
2022/03/30 01:01:35;;;;;;;;;;;;;;;15.10;36.77;98710.78;4459997;32;20001;-74
2022/03/30 01:04:03;;;;;;;;;;;;;;;15.24;37.45;98706.13;4459927;32;20028;-70
2022/03/30 01:06:30;;;;;;;;;;;;;;;15.04;37.60;98705.69;4459517;32;19989;-72
2022/03/30 01:08:57;;;;;;;;;;;;;;;15.11;37.23;98704.66;4459568;32;20000;-73
2022/03/30 01:11:25;;;;;;;;;;;;;;;15.24;36.70;98700.91;4460155;32;19981;-72
2022/03/30 01:13:51;;;;;;;;;;;;;;;15.09;37.04;98696.88;4458846;32;20022;-75
2022/03/30 01:16:30;;;;;;;;;;;;;;;15.07;37.31;98708.22;4458827;32;20000;-73
2022/03/30 01:19:07;;;;;;;;;;;;;;;14.98;37.69;98697.97;4458612;32;20061;-74
2022/03/30 01:21:35;;;;;;;;;;;;;;;14.96;38.42;98704.97;4457091;32;19977;-73
2022/03/30 01:24:02;;;;;;;;;;;;;;;14.88;38.36;98700.78;4445566;32;19991;-72
2022/03/30 01:26:29;;;;;;;;;;;;;;;14.84;38.60;98696.50;4444603;32;19981;-70
2022/03/30 01:28:56;;;;;;;;;;;;;;;14.93;38.28;98695.44;4444471;32;20006;-72
2022/03/30 01:34:09;;;;;;;;;;;;;;;15.00;38.24;98685.78;4444416;32;19981;-73
2022/03/30 01:36:36;;;;;;;;;;;;;;;14.92;37.32;98682.47;4446788;32;19994;-73
2022/03/30 01:39:03;;;;;;;;;;;;;;;15.02;37.07;98673.56;4454124;32;20030;-73
2022/03/30 01:41:30;;;;;;;;;;;;;;;14.94;37.24;98675.50;4459578;32;19995;-73
2022/03/30 01:43:57;;;;;;;;;;;;;;;14.94;37.18;98675.50;4459609;32;20375;-73
2022/03/30 01:46:24;;;;;;;;;;;;;;;15.01;36.74;98671.88;4459510;32;20026;-72
2022/03/30 01:48:51;;;;;;;;;;;;;;;15.07;37.19;98671.75;4459060;32;19989;-71
2022/03/30 01:51:18;;;;;;;;;;;;;;;15.24;36.40;98669.63;4459171;32;19999;-73
2022/03/30 01:53:44;;;;;;;;;;;;;;;15.08;36.71;98663.00;4450263;32;20012;-74
2022/03/30 01:56:12;;;;;;;;;;;;;;;15.05;38.07;98668.28;4443873;32;19998;-73
2022/03/30 01:58:38;;;;;;;;;;;;;;;15.03;38.55;98672.69;4452240;32;20345;-73
2022/03/30 02:01:05;;;;;;;;;;;;;;;15.02;37.44;98669.22;4459419;32;19980;-73
2022/03/30 02:03:32;;;;;;;;;;;;;;;14.97;37.26;98665.00;4458935;32;19993;-72
2022/03/30 02:05:59;;;;;;;;;;;;;;;14.92;38.43;98661.63;4455971;32;19989;-72
2022/03/30 02:08:26;;;;;;;;;;;;;;;14.98;37.98;98661.50;4458951;32;20483;-71
2022/03/30 02:10:53;;;;;;;;;;;;;;;14.77;38.41;98658.44;4458245;32;20281;-72
2022/03/30 02:13:20;;;;;;;;;;;;;;;14.83;38.29;98658.31;4459398;32;20007;-75
2022/03/30 02:15:46;;;;;;;;;;;;;;;14.73;38.72;98651.56;4458871;32;19988;-75
2022/03/30 02:18:13;;;;;;;;;;;;;;;14.60;38.58;98655.31;4459328;32;20497;-74
2022/03/30 02:20:41;;;;;;;;;;;;;;;14.68;38.36;98648.22;4434575;32;20338;-73
2022/03/30 02:23:08;;;;;;;;;;;;;;;14.46;38.80;98659.91;4451708;32;20054;-72
2022/03/30 02:25:35;;;;;;;;;;;;;;;14.62;38.48;98659.59;4459080;32;20000;-72
2022/03/30 02:28:03;;;;;;;;;;;;;;;14.41;38.38;98665.16;4458987;32;19985;-75
2022/03/30 02:30:30;;;;;;;;;;;;;;;14.33;38.49;98670.53;4459305;32;19981;-73
2022/03/30 02:32:58;;;;;;;;;;;;;;;14.35;38.73;98666.13;4431347;32;19980;-73
2022/03/30 02:35:25;;;;;;;;;;;;;;;14.36;38.78;98664.41;4456389;32;19999;-73
2022/03/30 02:37:54;;;;;;;;;;;;;;;14.14;39.05;98663.94;4431529;32;20040;-73
2022/03/30 02:40:21;;;;;;;;;;;;;;;14.08;39.18;98671.84;4444051;32;20000;-73
2022/03/30 02:42:48;;;;;;;;;;;;;;;14.24;38.18;98668.09;4458774;32;19981;-73
2022/03/30 02:45:15;;;;;;;;;;;;;;;14.21;38.19;98662.94;4458311;32;19989;-71
2022/03/30 02:50:27;;;;;;;;;;;;;;;14.46;38.15;98657.28;4457714;32;19981;-73
2022/03/30 02:52:54;;;;;;;;;;;;;;;14.21;38.45;98668.13;4438531;32;19973;-73
2022/03/30 02:55:21;;;;;;;;;;;;;;;14.22;38.44;98664.63;4459083;32;19989;-73
2022/03/30 02:57:48;;;;;;;;;;;;;;;14.21;37.91;98668.13;4458810;32;20041;-74
2022/03/30 03:00:15;;;;;;;;;;;;;;;14.16;38.22;98669.94;4458076;32;19988;-73
2022/03/30 03:02:42;;;;;;;;;;;;;;;14.02;39.11;98664.12;4459072;32;19989;-73
2022/03/30 03:05:10;;;;;;;;;;;;;;;14.12;38.38;98657.88;4436158;32;20008;-75
2022/03/30 03:07:37;;;;;;;;;;;;;;;14.19;38.52;98659.50;4458582;32;20345;-72
2022/03/30 03:10:04;;;;;;;;;;;;;;;14.11;38.41;98656.19;4449291;32;20304;-70
2022/03/30 03:12:31;;;;;;;;;;;;;;;14.12;38.54;98668.28;4442791;32;19973;-72
2022/03/30 03:14:58;;;;;;;;;;;;;;;14.14;38.42;98659.59;4443133;32;20015;-72
2022/03/30 03:17:24;;;;;;;;;;;;;;;14.11;38.74;98662.25;4443448;32;20039;-72
2022/03/30 03:19:51;;;;;;;;;;;;;;;14.16;38.46;98675.16;4445198;32;20027;-73
2022/03/30 03:22:18;;;;;;;;;;;;;;;13.98;39.24;98670.28;4442815;32;20779;-72
2022/03/30 03:24:45;;;;;;;;;;;;;;;14.04;39.34;98665.84;4443904;32;19981;-72
2022/03/30 03:27:12;;;;;;;;;;;;;;;14.01;39.12;98670.19;4444865;32;19996;-73
2022/03/30 03:29:39;;;;;;;;;;;;;;;13.95;38.86;98664.25;4444993;32;19976;-72
2022/03/30 03:32:06;;;;;;;;;;;;;;;13.96;39.58;98662.50;4444395;32;19985;-72
2022/03/30 03:34:33;;;;;;;;;;;;;;;13.88;38.98;98662.63;4444930;32;20035;-72
2022/03/30 03:37:00;;;;;;;;;;;;;;;13.88;39.31;98659.13;4445545;32;20030;-72
2022/03/30 03:39:27;;;;;;;;;;;;;;;13.93;39.15;98647.78;4444877;32;19981;-72
2022/03/30 03:41:54;;;;;;;;;;;;;;;13.87;39.00;98647.88;4445134;32;20323;-73
2022/03/30 03:44:20;;;;;;;;;;;;;;;13.95;38.43;98655.56;4444805;32;20470;-72
2022/03/30 03:46:47;;;;;;;;;;;;;;;13.95;38.55;98653.84;4444389;32;20004;-72
2022/03/30 03:49:14;;;;;;;;;;;;;;;13.89;38.29;98651.31;4444220;32;20039;-73
2022/03/30 03:51:41;;;;;;;;;;;;;;;13.77;40.06;98656.72;4444538;32;19969;-72
2022/03/30 03:54:08;;;;;;;;;;;;;;;13.79;39.90;98649.78;4439680;32;20557;-73
2022/03/30 03:56:35;;;;;;;;;;;;;;;13.65;40.32;98656.91;4430433;32;20477;-71
2022/03/30 03:59:01;;;;;;;;;;;;;;;13.67;39.84;98653.41;4444663;32;20720;-73
2022/03/30 04:01:29;;;;;;;;;;;;;;;13.51;40.02;98656.28;4444460;32;20439;-72
2022/03/30 04:03:57;;;;;;;;;;;;;;;13.63;39.75;98650.91;4443879;32;19988;-72
2022/03/30 04:06:30;;;;;;;;;;;;;;;13.62;39.82;98647.41;4430683;32;19993;-72
2022/03/30 04:08:57;;;;;;;;;;;;;;;13.72;39.37;98640.34;4444979;32;19989;-73
2022/03/30 04:11:24;;;;;;;;;;;;;;;13.62;39.64;98646.56;4444053;32;20011;-72
2022/03/30 04:13:50;;;;;;;;;;;;;;;13.62;39.45;98647.41;4444573;32;19992;-71
2022/03/30 04:16:17;;;;;;;;;;;;;;;13.60;38.91;98637.94;4431016;32;20004;-75
2022/03/30 04:18:44;;;;;;;;;;;;;;;13.43;39.61;98641.66;4443920;32;20781;-73
2022/03/30 04:21:11;;;;;;;;;;;;;;;13.59;39.16;98641.41;4443785;32;20004;-72
2022/03/30 04:23:38;;;;;;;;;;;;;;;13.51;39.00;98643.28;4444837;32;20270;-71
2022/03/30 04:26:05;;;;;;;;;;;;;;;13.46;39.16;98646.81;4444298;32;19988;-72
2022/03/30 04:28:32;;;;;;;;;;;;;;;13.45;39.22;98647.66;4444354;32;20340;-72
2022/03/30 04:30:59;;;;;;;;;;;;;;;13.47;39.15;98637.28;4435102;32;19999;-73
2022/03/30 04:33:26;;;;;;;;;;;;;;;13.49;39.15;98649.34;4444763;32;20004;-73
2022/03/30 04:35:53;;;;;;;;;;;;;;;13.29;39.31;98651.37;4432269;32;20389;-73
2022/03/30 04:38:20;;;;;;;;;;;;;;;12.59;41.17;98654.84;4444946;32;19988;-72
2022/03/30 04:40:47;;;;;;;;;;;;;;;13.00;40.35;98651.75;4444610;32;19988;-74
2022/03/30 04:43:14;;;;;;;;;;;;;;;13.07;40.05;98657.72;4443174;32;20146;-71
2022/03/30 04:45:41;;;;;;;;;;;;;;;13.15;40.02;98656.75;4444503;32;20808;-71
2022/03/30 04:48:07;;;;;;;;;;;;;;;13.22;39.79;98657.50;4444840;32;19985;-74
2022/03/30 04:50:35;;;;;;;;;;;;;;;13.33;39.77;98666.03;4443445;32;20067;-74
2022/03/30 04:53:02;;;;;;;;;;;;;;;13.39;39.82;98663.34;4441877;32;19989;-71
2022/03/30 04:55:29;;;;;;;;;;;;;;;13.42;40.63;98650.31;4442931;32;19985;-73
2022/03/30 04:57:55;;;;;;;;;;;;;;;13.32;40.70;98653.94;4444926;32;20033;-75
2022/03/30 05:00:22;;;;;;;;;;;;;;;13.03;41.61;98657.75;4443703;32;19978;-73
2022/03/30 05:02:49;;;;;;;;;;;;;;;13.25;40.82;98667.91;4430211;32;19985;-74
2022/03/30 05:05:16;;;;;;;;;;;;;;;12.76;42.32;98673.66;4444654;32;20007;-74
2022/03/30 05:07:43;;;;;;;;;;;;;;;13.15;41.50;98674.94;4438973;32;20282;-74
2022/03/30 05:10:10;;;;;;;;;;;;;;;13.39;40.47;98671.16;4430012;32;19997;-75
2022/03/30 05:12:37;;;;;;;;;;;;;;;13.52;40.48;98678.78;4430056;32;20862;-74
2022/03/30 05:15:05;;;;;;;;;;;;;;;13.58;40.97;98676.94;4441814;32;19985;-74
2022/03/30 05:17:32;;;;;;;;;;;;;;;13.55;40.86;98681.34;4422771;32;20052;-76
2022/03/30 05:19:59;;;;;;;;;;;;;;;13.44;41.56;98687.56;4444649;32;20038;-76
2022/03/30 05:22:26;;;;;;;;;;;;;;;13.15;42.38;98692.25;4435384;32;19997;-78
2022/03/30 05:24:53;;;;;;;;;;;;;;;13.37;41.70;98687.66;4443930;32;20055;-78
2022/03/30 05:27:20;;;;;;;;;;;;;;;13.60;41.49;98685.59;4444375;32;20327;-74
2022/03/30 05:29:47;;;;;;;;;;;;;;;13.74;41.29;98690.59;4444398;32;19981;-74
2022/03/30 05:32:13;;;;;;;;;;;;;;;13.78;41.66;98689.63;4444058;32;19981;-71
2022/03/30 05:34:40;;;;;;;;;;;;;;;13.69;41.19;98690.66;4443966;32;19989;-81
2022/03/30 05:37:08;;;;;;;;;;;;;;;13.88;40.85;98691.25;4443578;32;19993;-81
2022/03/30 05:39:39;;;;;;;;;;;;;;;13.93;40.96;98689.41;4442610;32;20012;-79
2022/03/30 05:42:07;;;;;;;;;;;;;;;14.06;40.53;98691.81;4443345;32;19997;-78
2022/03/30 05:44:34;;;;;;;;;;;;;;;14.01;40.83;98691.03;4444319;32;19989;-73
2022/03/30 05:47:01;;;;;;;;;;;;;;;14.08;40.54;98687.47;4442026;32;20026;-82
2022/03/30 05:49:27;;;;;;;;;;;;;;;14.13;40.52;98685.62;4435476;32;20379;-74
2022/03/30 05:51:56;;;;;;;;;;;;;;;14.19;40.46;98685.50;4425579;32;20323;-72
2022/03/30 05:54:23;;;;;;;;;;;;;;;14.17;40.53;98692.50;4428176;32;20000;-73
2022/03/30 05:57:02;;;;;;;;;;;;;;;14.23;39.64;98682.00;4438384;32;19981;-73
2022/03/30 05:59:30;;;;;;;;;;;;;;;14.40;39.95;98689.50;4443662;32;19987;-73
2022/03/30 06:01:57;;;;;;;;;;;;;;;14.42;39.96;98693.81;4442152;32;20490;-83
2022/03/30 06:04:24;;;;;;;;;;;;;;;14.12;40.54;98689.13;4425019;32;19985;-82
2022/03/30 06:06:52;;;;;;;;;;;;;;;14.21;40.02;98688.09;4432245;32;20490;-79
2022/03/30 06:09:19;;;;;;;;;;;;;;;14.14;40.23;98688.22;4443609;32;19985;-74
2022/03/30 06:12:05;;;;;;;;;;;;;;;14.01;40.82;98691.03;4431231;32;19994;-76
2022/03/30 06:14:32;;;;;;;;;;;;;;;14.25;40.52;98687.16;4441700;32;19985;-82
2022/03/30 06:17:00;;;;;;;;;;;;;;;14.59;39.65;98684.84;4443767;32;19985;-77
2022/03/30 06:19:27;;;;;;;;;;;;;;;14.58;39.61;98688.31;4429920;32;20417;-74
2022/03/30 06:21:54;;;;;;;;;;;;;;;14.87;39.21;98691.25;4428046;32;20330;-86
2022/03/30 06:24:21;;;;;;;;;;;;;;;14.83;39.75;98681.75;4427962;32;21804;-74
2022/03/30 06:26:48;;;;;;;;;;;;;;;14.96;39.32;98689.31;4442403;32;20369;-75
2022/03/30 06:29:15;;;;;;;;;;;;;;;15.02;40.14;98694.41;4443235;32;19981;-74
2022/03/30 06:31:41;;;;;;;;;;;;;;;15.17;38.74;98688.88;4442856;32;20022;-74
2022/03/30 06:34:08;;;;;;;;;;;;;;;15.33;38.41;98685.06;4443419;32;19985;-73
2022/03/30 06:36:37;;;;;;;;;;;;;;;15.52;38.03;98689.87;4443151;32;19985;-74
2022/03/30 06:39:05;;;;;;;;;;;;;;;15.72;37.49;98686.84;4443772;32;19977;-74
2022/03/30 06:41:32;;;;;;;;;;;;;;;15.69;38.29;98690.37;4443220;32;19996;-73
2022/03/30 06:43:59;;;;;;;;;;;;;;;16.04;37.31;98693.91;4439282;32;19985;-76
2022/03/30 06:46:26;;;;;;;;;;;;;;;16.21;37.05;98702.19;4457968;32;19989;-74
2022/03/30 06:48:53;;;;;;;;;;;;;;;16.55;36.44;98696.06;4426628;32;20287;-74
2022/03/30 06:51:24;;;;;;;;;;;;;;;16.72;35.45;98688.66;4431639;32;19988;-75
2022/03/30 06:53:50;;;;;;;;;;;;;;;17.05;35.08;98691.25;4445676;32;20003;-74
2022/03/30 06:56:17;;;;;;;;;;;;;;;17.10;35.24;98689.37;4442993;32;19981;-77
2022/03/30 06:58:44;;;;;;;;;;;;;;;17.14;34.91;98691.00;4430569;32;20400;-82
2022/03/30 07:01:14;;;;;;;;;;;;;;;17.56;34.33;98698.44;4427761;32;20278;-75
2022/03/30 07:03:41;;;;;;;;;;;;;;;17.60;34.50;98688.75;4429822;32;19998;-81
2022/03/30 07:06:08;;;;;;;;;;;;;;;17.74;33.06;98686.56;4416853;32;20052;-72
2022/03/30 07:11:22;;;;;;;;;;;;;;;18.16;32.50;98687.88;4457106;32;19989;-84
2022/03/30 07:13:49;;;;;;;;;;;;;;;18.25;32.88;98691.06;4459905;32;19988;-76
2022/03/30 07:16:15;;;;;;;;;;;;;;;18.32;32.86;98699.56;4446304;32;19992;-80
2022/03/30 07:18:43;;;;;;;;;;;;;;;18.18;35.27;98689.53;4458705;32;19999;-80
2022/03/30 07:21:09;;;;;;;;;;;;;;;18.50;33.56;98698.06;4447468;32;19993;-77
2022/03/30 07:23:36;;;;;;;;;;;;;;;18.83;33.62;98685.56;4459461;32;19984;-83
2022/03/30 07:26:04;;;;;;;;;;;;;;;18.83;31.95;98693.44;4460470;32;19999;-80
2022/03/30 07:28:31;;;;;;;;;;;;;;;19.00;31.06;98693.66;4460511;32;20318;-74
2022/03/30 07:30:58;;;;;;;;;;;;;;;19.07;31.97;98680.34;4435586;32;788718;-79
2022/03/30 07:33:25;;;;;;;;;;;;;;;19.03;32.92;98683.06;4459029;32;19981;-84
2022/03/30 07:35:52;;;;;;;;;;;;;;;18.80;32.61;98690.94;4458515;32;20019;-81
2022/03/30 07:38:19;;;;;;;;;;;;;;;19.09;30.69;98678.53;4460413;32;19991;-82
2022/03/30 07:40:47;;;;;;;;;;;;;;;19.01;32.01;98674.37;4460324;32;19985;-77
2022/03/30 07:43:15;;;;;;;;;;;;;;;19.17;32.04;98673.81;4457987;32;20022;-80
2022/03/30 07:45:43;;;;;;;;;;;;;;;19.56;29.49;98660.97;4460677;32;20113;-81
2022/03/30 07:48:10;;;;;;;;;;;;;;;19.52;30.63;98662.81;4459650;32;19981;-81
2022/03/30 07:50:41;;;;;;;;;;;;;;;19.57;30.26;98667.06;4456293;32;20007;-81
2022/03/30 07:53:08;;;;;;;;;;;;;;;19.68;29.75;98667.50;4445941;32;20000;-78
2022/03/30 07:55:41;;;;;;;;;;;;;;;19.57;29.47;98678.41;4445465;32;20004;-76
2022/03/30 07:58:08;;;;;;;;;;;;;;;19.04;31.30;98676.06;4459104;32;19977;-78
2022/03/30 08:00:38;;;;;;;;;;;;;;;19.23;30.74;98674.44;4459657;32;19988;-77
2022/03/30 08:03:05;;;;;;;;;;;;;;;18.74;31.38;98685.91;4417046;32;20037;-76
2022/03/30 08:05:33;;;;;;;;;;;;;;;18.78;31.02;98687.50;4446883;32;19992;-77
2022/03/30 08:08:01;;;;;;;;;;;;;;;18.86;31.12;98685.47;4430159;32;19980;-81
2022/03/30 08:10:30;;;;;;;;;;;;;;;19.51;31.03;98683.91;4460194;32;20356;-82
2022/03/30 08:12:57;;;;;;;;;;;;;;;19.76;29.91;98682.97;4432731;32;20000;-80
2022/03/30 08:15:24;;;;;;;;;;;;;;;20.02;28.92;98681.91;4459858;32;20027;-84
2022/03/30 08:17:52;;;;;;;;;;;;;;;19.72;29.61;98687.50;4432985;32;20049;-74
2022/03/30 08:23:11;;;;;;;;;;;;;;;19.47;30.78;98693.66;4455431;32;19992;-76
2022/03/30 08:25:38;;;;;;;;;;;;;;;19.74;28.98;98693.53;4459233;32;19999;-76
2022/03/30 08:28:05;;;;;;;;;;;;;;;19.69;30.89;98692.88;4445157;32;19996;-77
2022/03/30 08:30:33;;;;;;;;;;;;;;;20.58;27.36;98689.19;4460000;32;19985;-75
2022/03/30 08:33:01;;;;;;;;;;;;;;;20.61;27.26;98689.06;4417196;32;20027;-77
2022/03/30 08:35:29;;;;;;;;;;;;;;;20.87;27.06;98688.81;4460052;32;20000;-76
2022/03/30 08:37:56;;;;;;;;;;;;;;;20.95;26.74;98698.13;4420057;32;19991;-74
2022/03/30 08:40:23;;;;;;;;;;;;;;;20.77;27.83;98692.78;4432781;32;20044;-75
2022/03/30 08:42:50;;;;;;;;;;;;;;;20.95;28.23;98687.59;4445276;32;21589;-78
2022/03/30 08:45:19;;;;;;;;;;;;;;;21.11;27.17;98693.88;4430710;32;20003;-81
2022/03/30 08:47:46;;;;;;;;;;;;;;;20.78;26.52;98691.84;4440836;32;20034;-73
2022/03/30 08:50:13;;;;;;;;;;;;;;;20.94;27.37;98702.53;4442582;32;20008;-73
2022/03/30 08:52:41;;;;;;;;;;;;;;;20.60;28.95;98692.63;4443059;32;19977;-79
2022/03/30 08:55:08;;;;;;;;;;;;;;;20.88;28.28;98698.41;4442511;32;20036;-75
2022/03/30 08:57:35;;;;;;;;;;;;;;;20.36;31.25;98703.25;4136382;32;10001434;-73
2022/03/30 09:00:10;;;;;;;;;;;;;;;20.07;31.93;98704.47;4444425;32;19988;-75
2022/03/30 09:02:38;;;;;;;;;;;;;;;20.59;30.25;98696.19;4439796;32;20376;-77
2022/03/30 09:05:25;;;;;;;;;;;;;;;20.19;31.44;98700.44;4430933;32;20024;-78
2022/03/30 09:07:54;;;;;;;;;;;;;;;20.37;30.46;98688.34;4443807;32;19993;-77
2022/03/30 09:10:22;;;;;;;;;;;;;;;20.32;31.84;98687.66;4444162;32;19977;-76
2022/03/30 09:12:50;;;;;;;;;;;;;;;19.63;32.81;98695.69;4440768;32;20031;-74
2022/03/30 09:15:17;;;;;;;;;;;;;;;19.94;32.28;98698.84;4443171;32;19997;-74
2022/03/30 09:17:58;;;;;;;;;;;;;;;19.97;30.92;98685.59;4441618;32;20049;-77
2022/03/30 09:20:32;;;;;;;;;;;;;;;19.38;32.66;98683.50;4441165;32;19999;-75
2022/03/30 09:23:00;;;;;;;;;;;;;;;19.92;32.91;98690.16;4427512;32;19994;-73
2022/03/30 09:25:45;;;;;;;;;;;;;;;19.63;32.62;98687.81;4428998;32;20017;-74
2022/03/30 09:28:12;;;;;;;;;;;;;;;19.78;32.79;98692.47;4434166;32;19997;-77
2022/03/30 09:30:39;;;;;;;;;;;;;;;19.49;32.81;98694.44;4442637;32;20549;-72
2022/03/30 09:33:08;;;;;;;;;;;;;;;19.90;31.82;98686.75;4437567;32;20000;-80
2022/03/30 09:35:41;;;;;;;;;;;;;;;19.69;33.65;98685.84;4432525;32;19984;-73
2022/03/30 09:38:16;;;;;;;;;;;;;;;19.60;33.17;98693.19;4438130;32;20007;-73
2022/03/30 09:40:44;;;;;;;;;;;;;;;19.71;34.18;98691.00;4459817;32;19973;-74
2022/03/30 09:43:12;;;;;;;;;;;;;;;19.38;33.74;98683.50;4455729;32;19996;-74
2022/03/30 09:45:39;;;;;;;;;;;;;;;19.19;34.51;98687.75;4442747;32;20379;-74
2022/03/30 09:48:10;;;;;;;;;;;;;;;19.35;33.60;98683.63;4451130;32;20326;-73
2022/03/30 09:50:47;;;;;;;;;;;;;;;19.28;34.76;98682.16;4457121;32;20007;-74
2022/03/30 09:53:15;;;;;;;;;;;;;;;19.12;34.92;98681.87;4455917;32;20007;-75
2022/03/30 09:55:55;;;;;;;;;;;;;;;19.07;34.95;98680.34;4459853;32;20471;-75
2022/03/30 09:58:23;;;;;;;;;;;;;;;18.99;34.79;98671.00;4455088;32;20001;-75
2022/03/30 10:01:05;;;;;;;;;;;;;;;19.22;34.56;98666.66;4447156;32;19964;-78
2022/03/30 10:03:52;;;;;;;;;;;;;;;19.29;34.51;98668.13;4444460;32;19992;-73
2022/03/30 10:06:20;;;;;;;;;;;;;;;19.09;34.03;98668.03;4457815;32;19989;-73
2022/03/30 10:08:48;;;;;;;;;;;;;;;18.48;35.14;98663.22;4448360;32;20033;-72
2022/03/30 10:11:18;;;;;;;;;;;;;;;18.63;35.59;98662.63;4457786;32;20253;-70
2022/03/30 10:13:50;;;;;;;;;;;;;;;18.80;34.91;98662.94;4449767;32;20007;-78
2022/03/30 10:16:37;;;;;;;;;;;;;;;18.84;35.34;98661.06;4444009;32;20279;-72
2022/03/30 10:19:05;;;;;;;;;;;;;;;19.12;34.13;98658.28;4443083;32;20030;-73
2022/03/30 10:21:49;;;;;;;;;;;;;;;19.12;34.20;98657.44;4443501;32;20019;-75
2022/03/30 10:24:27;;;;;;;;;;;;;;;19.43;34.13;98655.34;4437186;32;19992;-75
2022/03/30 10:27:00;;;;;;;;;;;;;;;18.99;36.11;98655.25;4450583;32;20010;-72
2022/03/30 10:29:27;;;;;;;;;;;;;;;18.82;36.00;98657.63;4429261;32;20420;-73
2022/03/30 10:32:08;;;;;;;;;;;;;;;18.74;36.31;98654.44;4431464;32;20031;-76
2022/03/30 10:34:37;;;;;;;;;;;;;;;18.92;36.10;98648.53;4420010;32;19985;-76
2022/03/30 10:37:07;;;;;;;;;;;;;;;19.03;36.33;98646.34;4415521;32;19996;-76
2022/03/30 10:39:34;;;;;;;;;;;;;;;18.68;36.06;98644.16;4426201;32;20039;-77
2022/03/30 10:42:20;;;;;;;;;;;;;;;19.00;35.28;98633.34;4426300;32;20500;-75
2022/03/30 10:44:49;;;;;;;;;;;;;;;19.33;34.27;98635.59;4443104;32;19988;-75
2022/03/30 10:47:17;;;;;;;;;;;;;;;19.26;33.96;98634.13;4440449;32;20056;-75
2022/03/30 10:49:45;;;;;;;;;;;;;;;19.16;34.81;98638.03;4439690;32;20000;-73
2022/03/30 10:52:24;;;;;;;;;;;;;;;19.12;34.83;98639.06;4442362;32;19969;-73
2022/03/30 10:54:55;;;;;;;;;;;;;;;18.92;33.72;98631.91;4422601;32;20008;-75
2022/03/30 10:57:42;;;;;;;;;;;;;;;18.57;33.79;98619.19;4442768;32;19977;-72
2022/03/30 11:00:20;;;;;;;;;;;;;;;18.62;35.39;98624.25;4441794;32;19985;-78
2022/03/30 11:02:47;;;;;;;;;;;;;;;19.21;33.93;98625.59;4414464;32;20013;-80
2022/03/30 11:05:16;;;;;;;;;;;;;;;18.91;34.40;98620.56;4427875;32;20577;-78
2022/03/30 11:07:43;;;;;;;;;;;;;;;18.71;37.00;98617.81;4438942;32;20002;-72
2022/03/30 11:10:13;;;;;;;;;;;;;;;18.96;36.29;98607.31;4441846;32;19981;-73
2022/03/30 11:13:02;;;;;;;;;;;;;;;18.85;37.47;98612.94;4438485;32;19984;-75
2022/03/30 11:15:29;;;;;;;;;;;;;;;18.80;36.05;98612.28;4442938;32;19985;-77
2022/03/30 11:18:15;;;;;;;;;;;;;;;19.21;35.74;98601.97;4415822;32;19989;-77
2022/03/30 11:20:41;;;;;;;;;;;;;;;19.24;35.06;98601.84;4427875;32;20041;-77
2022/03/30 11:23:19;;;;;;;;;;;;;;;19.17;34.95;98600.38;4427712;32;19977;-74
2022/03/30 11:25:52;;;;;;;;;;;;;;;18.68;36.83;98602.19;4428272;32;20045;-80
2022/03/30 11:28:19;;;;;;;;;;;;;;;18.70;35.50;98597.78;4415236;32;20537;-81
2022/03/30 11:30:47;;;;;;;;;;;;;;;19.28;34.53;98592.94;4438483;32;20000;-78
2022/03/30 11:33:19;;;;;;;;;;;;;;;19.41;34.43;98583.69;4434492;32;20356;-75
2022/03/30 11:35:48;;;;;;;;;;;;;;;19.47;34.89;98579.97;4435413;32;19985;-77
2022/03/30 11:38:24;;;;;;;;;;;;;;;19.60;33.90;98586.41;4417319;32;20705;-80
2022/03/30 11:40:56;;;;;;;;;;;;;;;19.54;34.33;98583.19;4428999;32;20042;-81
2022/03/30 11:43:23;;;;;;;;;;;;;;;19.59;35.03;98581.22;4435279;32;20022;-73
2022/03/30 11:45:59;;;;;;;;;;;;;;;19.46;33.20;98576.47;4423939;32;20349;-75
2022/03/30 11:48:26;;;;;;;;;;;;;;;19.72;32.87;98566.72;4436060;32;20085;-79
2022/03/30 11:50:54;;;;;;;;;;;;;;;19.09;34.27;98565.72;4440529;32;19996;-83
2022/03/30 11:53:21;;;;;;;;;;;;;;;19.17;34.64;98558.41;4438480;32;20017;-77
2022/03/30 11:55:51;;;;;;;;;;;;;;;19.13;34.79;98562.91;4442795;32;20240;-73
2022/03/30 11:58:31;;;;;;;;;;;;;;;19.41;33.25;98557.44;4440168;32;20040;-75
2022/03/30 12:00:59;;;;;;;;;;;;;;;19.46;33.77;98558.09;4434953;32;20099;-73
2022/03/30 12:03:27;;;;;;;;;;;;;;;19.06;34.75;98556.22;4434469;32;20383;-76
2022/03/30 12:05:55;;;;;;;;;;;;;;;18.97;34.06;98559.19;4442268;32;19986;-73
2022/03/30 12:08:22;;;;;;;;;;;;;;;19.28;33.63;98550.97;4444336;32;20041;-75
2022/03/30 12:10:53;;;;;;;;;;;;;;;19.09;33.94;98540.34;4442361;32;20047;-78
2022/03/30 12:13:22;;;;;;;;;;;;;;;19.50;33.63;98535.22;4442840;32;20020;-77
2022/03/30 12:16:08;;;;;;;;;;;;;;;19.28;33.49;98532.59;4442704;32;20040;-77
2022/03/30 12:18:42;;;;;;;;;;;;;;;19.32;33.19;98530.72;4442683;32;20007;-78
2022/03/30 12:21:31;;;;;;;;;;;;;;;19.09;34.05;98529.00;4442263;32;19981;-78
2022/03/30 12:24:00;;;;;;;;;;;;;;;19.07;33.79;98533.44;4441759;32;20000;-77
2022/03/30 12:26:44;;;;;;;;;;;;;;;19.10;33.95;98530.72;4434496;32;19977;-75
2022/03/30 12:29:14;;;;;;;;;;;;;;;18.86;34.87;98528.16;4434294;32;19997;-82
2022/03/30 12:31:49;;;;;;;;;;;;;;;18.95;34.96;98521.66;4442932;32;20323;-79
2022/03/30 12:34:17;;;;;;;;;;;;;;;18.74;33.87;98520.75;4444575;32;19988;-78
2022/03/30 12:36:46;;;;;;;;;;;;;;;18.90;34.05;98519.25;4455854;32;20057;-75
2022/03/30 12:39:16;;;;;;;;;;;;;;;18.76;34.44;98516.28;4459570;32;19989;-76
2022/03/30 12:41:54;;;;;;;;;;;;;;;18.83;33.52;98512.53;4452585;32;19992;-76
2022/03/30 12:44:21;;;;;;;;;;;;;;;18.69;33.15;98513.00;4446015;32;19996;-77
2022/03/30 12:46:52;;;;;;;;;;;;;;;18.65;33.69;98507.94;4445209;32;20016;-72
2022/03/30 12:49:30;;;;;;;;;;;;;;;18.69;33.11;98504.28;4433967;32;20000;-80
2022/03/30 12:52:23;;;;;;;;;;;;;;;18.64;32.76;98496.62;4444354;32;19985;-77
2022/03/30 12:54:52;;;;;;;;;;;;;;;18.68;33.95;98497.34;4441444;32;19995;-73
2022/03/30 12:57:26;;;;;;;;;;;;;;;18.62;33.99;98492.34;4443122;32;19985;-72
2022/03/30 12:59:53;;;;;;;;;;;;;;;18.40;35.01;98487.91;4443126;32;20420;-73
2022/03/30 13:02:23;;;;;;;;;;;;;;;18.54;34.43;98485.63;4441140;32;19993;-79
2022/03/30 13:04:51;;;;;;;;;;;;;;;18.39;34.82;98480.97;4428614;32;20358;-75